Time;durP1;ratioP1;P1;durP2;ratioP2;P2;SDS_P1;SDS_P2;PMS_P1;PMS_P2;Temp;Humidity;BMP_temperature;BMP_pressure;BME280_temperature;BME280_humidity;BME280_pressure;Samples;Min_cycle;Max_cycle;Signal;HPM_P1;HPM_P2
2022/07/18 00:02:16;;;;;;;0.63;0.43;;;15.80;99.90;;;;;;5105912;27;20124;-71
2022/07/18 00:04:42;;;;;;;0.50;0.50;;;15.80;99.90;;;;;;5081674;28;20074;-71
2022/07/18 00:07:10;;;;;;;0.63;0.52;;;15.80;99.90;;;;;;5096733;27;20040;-71
2022/07/18 00:09:36;;;;;;;0.50;0.40;;;15.80;99.90;;;;;;5109312;27;20141;-71
2022/07/18 00:12:04;;;;;;;0.55;0.43;;;15.80;99.90;;;;;;5114343;27;20043;-71
2022/07/18 00:14:30;;;;;;;0.30;0.20;;;15.70;99.90;;;;;;5096083;28;20067;-71
2022/07/18 00:16:56;;;;;;;0.38;0.38;;;15.80;99.90;;;;;;5092463;28;20077;-71
2022/07/18 00:19:21;;;;;;;0.50;0.50;;;15.80;99.90;;;;;;5109812;28;20047;-71
2022/07/18 00:21:47;;;;;;;0.57;0.50;;;15.70;99.90;;;;;;5093985;27;20128;-71
2022/07/18 00:24:13;;;;;;;0.40;0.30;;;15.70;99.90;;;;;;5095128;28;20119;-71
2022/07/18 00:26:39;;;;;;;0.30;0.30;;;15.60;99.90;;;;;;5098978;27;20047;-71
2022/07/18 00:29:04;;;;;;;0.30;0.30;;;15.70;99.90;;;;;;5098217;28;20067;-71
2022/07/18 00:31:30;;;;;;;0.40;0.38;;;15.60;99.90;;;;;;5093073;28;20057;-71
2022/07/18 00:33:56;;;;;;;0.45;0.30;;;15.60;99.90;;;;;;5126076;27;20389;-71
2022/07/18 00:36:21;;;;;;;0.80;0.60;;;15.60;99.90;;;;;;5120179;27;20096;-72
2022/07/18 00:38:47;;;;;;;0.60;0.60;;;15.50;99.90;;;;;;5098809;28;20039;-71
2022/07/18 00:41:16;;;;;;;0.95;0.70;;;15.50;99.90;;;;;;5092959;28;20457;-71
2022/07/18 00:43:42;;;;;;;0.43;0.43;;;15.40;99.90;;;;;;5094033;28;20032;-71
2022/07/18 00:46:08;;;;;;;0.40;0.40;;;15.40;99.90;;;;;;5076443;28;20062;-71
2022/07/18 00:48:34;;;;;;;0.73;0.55;;;15.30;99.90;;;;;;5091593;28;20042;-71
2022/07/18 00:50:59;;;;;;;0.70;0.60;;;15.30;99.90;;;;;;5092621;28;20031;-71
2022/07/18 00:53:25;;;;;;;1.27;0.60;;;15.30;99.90;;;;;;5074246;28;20054;-71
2022/07/18 00:55:52;;;;;;;0.82;0.57;;;15.30;99.90;;;;;;5095120;27;20043;-71
2022/07/18 00:58:18;;;;;;;0.68;0.60;;;15.20;99.90;;;;;;5097418;28;20047;-71
2022/07/18 01:03:28;;;;;;;0.75;0.70;;;15.10;99.90;;;;;;5105084;28;20386;-71
2022/07/18 01:05:54;;;;;;;0.70;0.52;;;15.10;99.90;;;;;;5097681;27;20534;-71
2022/07/18 01:08:19;;;;;;;1.42;0.70;;;15.10;99.90;;;;;;5098620;27;20043;-71
2022/07/18 01:10:45;;;;;;;1.13;0.80;;;15.10;99.90;;;;;;5108730;27;20061;-70
2022/07/18 01:13:11;;;;;;;0.80;0.60;;;15.10;99.90;;;;;;5119179;27;20039;-70
2022/07/18 01:15:37;;;;;;;0.85;0.70;;;15.10;99.90;;;;;;5111798;27;20064;-70
2022/07/18 01:18:03;;;;;;;0.70;0.65;;;15.20;99.90;;;;;;5086479;28;20406;-70
2022/07/18 01:20:31;;;;;;;0.60;0.60;;;15.10;99.90;;;;;;5097875;27;20054;-71
2022/07/18 01:22:58;;;;;;;0.50;0.50;;;15.10;99.90;;;;;;5093167;28;20075;-71
2022/07/18 01:25:24;;;;;;;0.60;0.60;;;15.20;99.90;;;;;;5087095;28;20058;-71
2022/07/18 01:27:49;;;;;;;1.55;0.70;;;15.10;99.90;;;;;;5090348;27;20042;-70
2022/07/18 01:30:15;;;;;;;0.75;0.60;;;15.10;99.90;;;;;;5077479;28;20466;-70
2022/07/18 01:32:42;;;;;;;1.02;0.70;;;15.00;99.90;;;;;;5093493;28;20031;-70
2022/07/18 01:35:08;;;;;;;0.80;0.60;;;15.00;99.90;;;;;;5099029;28;20032;-71
2022/07/18 01:37:33;;;;;;;;;;;14.90;99.90;;;;;;5109085;28;20074;-71
2022/07/18 01:39:59;;;;;;;0.70;0.57;;;14.90;99.90;;;;;;5079018;28;20045;-71
2022/07/18 01:42:25;;;;;;;0.75;0.50;;;14.90;99.90;;;;;;5081583;28;20031;-71
2022/07/18 01:44:50;;;;;;;1.13;0.90;;;14.90;99.90;;;;;;5075580;28;20055;-71
2022/07/18 01:47:16;;;;;;;0.80;0.68;;;14.90;99.90;;;;;;5075153;28;20043;-71
2022/07/18 01:49:42;;;;;;;0.80;0.60;;;14.90;99.90;;;;;;5115024;27;20034;-71
2022/07/18 01:52:08;;;;;;;;;;;14.90;99.90;;;;;;5072392;28;20044;-71
2022/07/18 01:54:35;;;;;;;1.10;0.75;;;14.90;99.90;;;;;;5084203;28;19946;-71
2022/07/18 01:57:03;;;;;;;1.60;0.90;;;14.90;99.90;;;;;;5081352;28;20126;-71
2022/07/18 01:59:28;;;;;;;1.00;0.70;;;14.90;99.90;;;;;;5094473;27;20073;-70
2022/07/18 02:01:54;;;;;;;1.02;0.70;;;14.80;99.90;;;;;;5105139;27;20035;-70
2022/07/18 02:04:58;;;;;;;1.10;0.80;;;14.90;99.90;;;;;;5100723;28;20384;-70
2022/07/18 02:07:06;;;;;;;0.90;0.80;;;14.90;99.90;;;;;;5099360;27;20482;-70
2022/07/18 02:09:31;;;;;;;0.80;0.80;;;14.90;99.90;;;;;;5104128;28;20042;-70
2022/07/18 02:11:57;;;;;;;1.10;0.70;;;14.90;99.90;;;;;;5096097;28;20123;-71
2022/07/18 02:14:22;;;;;;;1.00;0.80;;;14.80;99.90;;;;;;5104281;27;20459;-70
2022/07/18 02:16:48;;;;;;;1.08;0.90;;;14.90;99.90;;;;;;5083291;28;20043;-71
2022/07/18 02:19:14;;;;;;;0.90;0.80;;;14.90;99.90;;;;;;5098328;28;20048;-71
2022/07/18 02:21:39;;;;;;;0.95;0.70;;;14.90;99.90;;;;;;5107569;27;20153;-71
2022/07/18 02:24:05;;;;;;;0.73;0.68;;;14.90;99.90;;;;;;5095562;28;20039;-71
2022/07/18 02:26:31;;;;;;;1.23;0.70;;;14.90;99.90;;;;;;5095943;28;20064;-71
2022/07/18 02:28:57;;;;;;;0.75;0.70;;;14.90;99.90;;;;;;5077833;28;20055;-71
2022/07/18 02:31:23;;;;;;;0.75;0.63;;;14.90;99.90;;;;;;5094251;28;20047;-71
2022/07/18 02:33:49;;;;;;;0.93;0.60;;;15.00;99.90;;;;;;5095552;28;20508;-71
2022/07/18 02:36:14;;;;;;;0.60;0.60;;;14.90;99.90;;;;;;5095908;28;20039;-71
2022/07/18 02:38:40;;;;;;;0.50;0.50;;;15.10;99.90;;;;;;5095840;27;20430;-71
2022/07/18 02:41:06;;;;;;;0.63;0.50;;;15.00;99.90;;;;;;5107737;28;20038;-70
2022/07/18 02:43:31;;;;;;;0.60;0.55;;;15.10;99.90;;;;;;5095884;28;20036;-71
2022/07/18 02:45:57;;;;;;;0.57;0.32;;;15.20;99.90;;;;;;5082163;28;20035;-71
2022/07/18 02:48:23;;;;;;;0.30;0.30;;;15.30;99.90;;;;;;5078739;28;20035;-71
2022/07/18 02:50:48;;;;;;;0.43;0.30;;;15.30;99.90;;;;;;5095194;27;20545;-70
2022/07/18 02:53:14;;;;;;;0.30;0.30;;;15.40;99.90;;;;;;5098084;27;20120;-71
2022/07/18 02:55:40;;;;;;;0.52;0.50;;;15.50;99.90;;;;;;5094744;27;20039;-70
2022/07/18 02:58:05;;;;;;;0.55;0.40;;;15.50;99.90;;;;;;5094094;27;20047;-70
2022/07/18 03:00:31;;;;;;;0.60;0.50;;;15.50;99.90;;;;;;5084365;27;20125;-70
2022/07/18 03:02:57;;;;;;;0.50;0.40;;;15.50;99.90;;;;;;5082971;27;20039;-70
2022/07/18 03:05:22;;;;;;;0.60;0.30;;;15.60;99.90;;;;;;5103533;27;20050;-70
2022/07/18 03:07:48;;;;;;;0.30;0.30;;;15.60;99.90;;;;;;5102873;27;20093;-70
2022/07/18 03:10:14;;;;;;;0.47;0.30;;;15.60;99.90;;;;;;5100501;27;20401;-70
2022/07/18 03:12:42;;;;;;;0.70;0.50;;;15.60;99.90;;;;;;5098149;28;20050;-70
2022/07/18 03:15:09;;;;;;;0.50;0.45;;;15.60;99.90;;;;;;5102437;28;20035;-70
2022/07/18 03:17:35;;;;;;;0.50;0.50;;;15.60;99.90;;;;;;5097958;27;20474;-70
2022/07/18 03:20:00;;;;;;;0.73;0.60;;;15.50;99.90;;;;;;5082447;28;20051;-70
2022/07/18 03:22:26;;;;;;;0.50;0.50;;;15.60;99.90;;;;;;5078868;27;20043;-70
2022/07/18 03:24:52;;;;;;;0.95;0.77;;;15.60;99.90;;;;;;5096858;28;20040;-70
2022/07/18 03:27:17;;;;;;;0.85;0.70;;;15.60;99.90;;;;;;5076875;28;20374;-70
2022/07/18 03:29:43;;;;;;;0.43;0.43;;;15.60;99.90;;;;;;5130685;27;20096;-70
2022/07/18 03:32:09;;;;;;;0.50;0.43;;;15.60;99.90;;;;;;5081167;28;20088;-69
2022/07/18 03:34:34;;;;;;;0.40;0.40;;;15.60;99.90;;;;;;5094521;28;20054;-70
2022/07/18 03:37:00;;;;;;;0.55;0.40;;;15.60;99.90;;;;;;5095719;28;20047;-70
2022/07/18 03:39:26;;;;;;;0.40;0.40;;;15.60;99.90;;;;;;5093918;28;20051;-69
2022/07/18 03:41:52;;;;;;;0.75;0.57;;;15.60;99.90;;;;;;5088908;28;20048;-70
2022/07/18 03:44:17;;;;;;;0.80;0.60;;;15.60;99.90;;;;;;5094544;28;20040;-70
2022/07/18 03:46:43;;;;;;;1.08;0.57;;;15.60;99.90;;;;;;5109517;27;20048;-70
2022/07/18 03:49:09;;;;;;;1.00;0.70;;;15.60;99.90;;;;;;5079715;28;20067;-70
2022/07/18 03:51:35;;;;;;;0.70;0.60;;;15.60;99.90;;;;;;5104291;28;20043;-70
2022/07/18 03:54:01;;;;;;;0.50;0.50;;;15.60;99.90;;;;;;5135785;27;20039;-70
2022/07/18 03:56:26;;;;;;;0.77;0.70;;;15.60;99.90;;;;;;5097896;27;20061;-70
2022/07/18 03:58:52;;;;;;;1.55;0.80;;;15.60;99.90;;;;;;5094417;27;20102;-70
2022/07/18 04:01:18;;;;;;;0.90;0.70;;;15.60;99.90;;;;;;5076313;28;20031;-70
2022/07/18 04:03:44;;;;;;;0.98;0.68;;;15.50;99.90;;;;;;5092729;28;20047;-70
2022/07/18 04:06:09;;;;;;;0.90;0.70;;;15.50;99.90;;;;;;5082134;28;20070;-70
2022/07/18 04:08:35;;;;;;;0.75;0.70;;;15.50;99.90;;;;;;5129707;27;20104;-70
2022/07/18 04:11:01;;;;;;;1.15;0.85;;;15.50;99.90;;;;;;5081400;27;20050;-70
2022/07/18 04:13:26;;;;;;;0.90;0.70;;;15.50;99.90;;;;;;5096545;28;20092;-70
2022/07/18 04:15:52;;;;;;;0.57;0.50;;;15.50;99.90;;;;;;5096041;27;20394;-70
2022/07/18 04:18:18;;;;;;;0.57;0.57;;;15.50;99.90;;;;;;5093668;28;20065;-70
2022/07/18 04:20:44;;;;;;;0.50;0.50;;;15.60;99.90;;;;;;5077092;28;20108;-70
2022/07/18 04:23:10;;;;;;;0.45;0.40;;;15.60;99.90;;;;;;5108361;27;20529;-69
2022/07/18 04:25:38;;;;;;;;;;;15.70;99.90;;;;;;5126135;27;20051;-70
2022/07/18 04:28:05;;;;;;;0.68;0.57;;;15.80;99.90;;;;;;5111131;27;19923;-70
2022/07/18 04:30:32;;;;;;;0.82;0.60;;;15.90;99.90;;;;;;5091103;28;20154;-70
2022/07/18 04:33:05;;;;;;;0.68;0.57;;;16.00;99.90;;;;;;5092318;28;20051;-70
2022/07/18 04:35:32;;;;;;;0.45;0.40;;;16.00;99.90;;;;;;5091013;28;20050;-70
2022/07/18 04:37:58;;;;;;;0.80;0.60;;;16.10;99.90;;;;;;5130514;27;20097;-70
2022/07/18 04:40:23;;;;;;;0.60;0.55;;;16.20;99.90;;;;;;5100743;28;20524;-70
2022/07/18 04:42:50;;;;;;;0.75;0.40;;;16.30;99.90;;;;;;5096091;27;20046;-70
2022/07/18 04:45:18;;;;;;;0.40;0.40;;;16.40;99.90;;;;;;5076014;28;20043;-71
2022/07/18 04:47:43;;;;;;;0.50;0.50;;;16.50;99.90;;;;;;5092987;28;20475;-69
2022/07/18 04:50:09;;;;;;;0.45;0.35;;;16.50;99.90;;;;;;5080271;28;20047;-70
2022/07/18 04:52:40;;;;;;;0.40;0.40;;;16.60;99.90;;;;;;5138053;27;20046;-70
2022/07/18 04:55:07;;;;;;;0.57;0.40;;;16.70;99.90;;;;;;5107455;27;20436;-69
2022/07/18 04:57:34;;;;;;;0.40;0.35;;;16.70;99.90;;;;;;5109999;28;20393;-69
2022/07/18 05:00:01;;;;;;;0.40;0.30;;;16.80;99.90;;;;;;5093450;27;20036;-70
2022/07/18 05:02:26;;;;;;;0.63;0.40;;;16.90;99.90;;;;;;5099925;28;20040;-71
2022/07/18 05:04:52;;;;;;;0.55;0.50;;;16.90;99.90;;;;;;5066366;27;20040;-76
2022/07/18 05:07:18;;;;;;;0.50;0.50;;;17.00;99.90;;;;;;5092530;27;20100;-76
2022/07/18 05:09:43;;;;;;;0.30;0.30;;;17.00;99.90;;;;;;5070406;28;20374;-75
2022/07/18 05:12:09;;;;;;;0.40;0.30;;;17.10;99.90;;;;;;5095755;27;20106;-75
2022/07/18 05:14:35;;;;;;;;;;;17.20;99.90;;;;;;5098047;27;20039;-76
2022/07/18 05:17:01;;;;;;;0.60;0.50;;;17.20;99.90;;;;;;5127612;27;19919;-70
2022/07/18 05:19:27;;;;;;;0.60;0.50;;;17.30;99.90;;;;;;5073898;28;20059;-70
2022/07/18 05:21:52;;;;;;;0.63;0.50;;;17.40;99.90;;;;;;5079253;28;20065;-68
2022/07/18 05:24:18;;;;;;;0.73;0.52;;;17.30;99.90;;;;;;5076409;28;20048;-68
2022/07/18 05:26:44;;;;;;;0.40;0.40;;;17.40;99.90;;;;;;5069576;28;20547;-70
2022/07/18 05:29:12;;;;;;;0.55;0.50;;;17.40;99.90;;;;;;5084127;27;20047;-70
2022/07/18 05:31:39;;;;;;;0.30;0.30;;;17.50;99.90;;;;;;5101060;28;20055;-70
2022/07/18 05:34:05;;;;;;;0.43;0.40;;;17.50;99.90;;;;;;5075332;28;20071;-70
2022/07/18 05:36:31;;;;;;;0.50;0.40;;;17.50;99.90;;;;;;5097940;28;20092;-70
2022/07/18 05:38:57;;;;;;;0.55;0.30;;;17.60;99.90;;;;;;5103803;28;20039;-71
2022/07/18 05:41:22;;;;;;;0.35;0.35;;;17.60;99.90;;;;;;5097587;28;20042;-70
2022/07/18 05:43:48;;;;;;;0.40;0.30;;;17.60;99.90;;;;;;5078728;27;20146;-69
2022/07/18 05:46:14;;;;;;;0.63;0.40;;;17.60;99.90;;;;;;5079981;28;20032;-70
2022/07/18 05:48:39;;;;;;;0.40;0.40;;;17.60;99.90;;;;;;5106989;28;20047;-70
2022/07/18 05:51:06;;;;;;;0.30;0.30;;;17.60;99.90;;;;;;5091035;28;20234;-71
2022/07/18 05:53:32;;;;;;;0.32;0.30;;;17.60;99.90;;;;;;5106976;28;20042;-70
2022/07/18 05:55:58;;;;;;;0.40;0.40;;;17.70;99.90;;;;;;5092905;28;20040;-71
2022/07/18 05:58:24;;;;;;;0.52;0.40;;;17.70;99.90;;;;;;5091451;28;20048;-71
2022/07/18 06:00:49;;;;;;;0.47;0.30;;;17.80;99.90;;;;;;5075178;28;20469;-70
2022/07/18 06:03:15;;;;;;;;;;;17.90;99.90;;;;;;5086554;28;20047;-71
2022/07/18 06:05:41;;;;;;;0.25;0.20;;;18.00;99.90;;;;;;5092120;28;19920;-71
2022/07/18 06:08:07;;;;;;;0.50;0.47;;;18.10;99.90;;;;;;5092119;28;20554;-71
2022/07/18 06:10:32;;;;;;;;;;;18.10;99.90;;;;;;5075490;28;20617;-70
2022/07/18 06:12:58;;;;;;;0.90;0.50;;;18.20;99.90;;;;;;5109100;28;19919;-73
2022/07/18 06:15:24;;;;;;;;;;;18.40;99.90;;;;;;5092244;28;20032;-73
2022/07/18 06:17:50;;;;;;;1.00;0.55;;;18.40;99.90;;;;;;5091149;28;19932;-74
2022/07/18 06:20:16;;;;;;;0.50;0.50;;;18.50;99.90;;;;;;5061366;28;20374;-73
2022/07/18 06:22:42;;;;;;;0.65;0.57;;;18.50;99.90;;;;;;5094956;28;20039;-73
2022/07/18 06:25:08;;;;;;;;;;;18.60;99.90;;;;;;5091990;28;20058;-73
2022/07/18 06:27:35;;;;;;;0.68;0.55;;;18.60;99.90;;;;;;5113707;28;19926;-73
2022/07/18 06:30:04;;;;;;;0.98;0.40;;;18.70;99.90;;;;;;5121045;28;20080;-74
2022/07/18 06:32:30;;;;;;;0.50;0.45;;;18.80;99.90;;;;;;5096650;28;20046;-73
2022/07/18 06:34:56;;;;;;;0.50;0.40;;;19.00;99.90;;;;;;5091690;28;20039;-73
2022/07/18 06:37:21;;;;;;;;;;;19.20;99.90;;;;;;5091639;28;20047;-73
2022/07/18 06:39:47;;;;;;;0.55;0.50;;;19.20;99.90;;;;;;5108673;28;19916;-73
2022/07/18 06:42:12;;;;;;;;;;;19.20;99.90;;;;;;5100154;28;20047;-73
2022/07/18 06:44:38;;;;;;;0.57;0.50;;;19.20;99.90;;;;;;5099349;27;19919;-74
2022/07/18 06:47:04;;;;;;;;;;;19.30;99.90;;;;;;5093734;28;20122;-74
2022/07/18 06:49:29;;;;;;;0.70;0.50;;;19.30;99.90;;;;;;5090680;28;19941;-73
2022/07/18 06:51:55;;;;;;;;;;;19.30;99.90;;;;;;5089803;27;20058;-73
2022/07/18 06:54:26;;;;;;;0.50;0.40;;;19.40;99.90;;;;;;5139244;27;20306;-74
2022/07/18 06:56:52;;;;;;;1.95;0.50;;;19.50;99.90;;;;;;5099045;28;20107;-74
2022/07/18 06:59:17;;;;;;;;;;;19.70;99.90;;;;;;5117060;27;20044;-74
2022/07/18 07:01:43;;;;;;;0.73;0.30;;;19.80;99.90;;;;;;5095133;28;19919;-74
2022/07/18 07:04:08;;;;;;;;;;;20.00;99.90;;;;;;5095086;28;20039;-74
2022/07/18 07:06:37;;;;;;;0.57;0.50;;;20.10;99.90;;;;;;5143240;27;20293;-74
2022/07/18 07:09:03;;;;;;;0.30;0.30;;;20.20;99.90;;;;;;5096843;28;20043;-74
2022/07/18 07:11:28;;;;;;;;;;;20.20;99.90;;;;;;5094989;28;20047;-74
2022/07/18 07:13:54;;;;;;;0.60;0.50;;;20.30;99.90;;;;;;5096428;28;20340;-74
2022/07/18 07:16:19;;;;;;;;;;;20.30;99.90;;;;;;5126616;27;20032;-74
2022/07/18 07:18:45;;;;;;;0.35;0.32;;;20.40;99.90;;;;;;5137231;27;19923;-74
2022/07/18 07:21:11;;;;;;;;;;;20.50;99.90;;;;;;5100441;28;20035;-74
2022/07/18 07:23:36;;;;;;;1.67;0.40;;;20.60;99.90;;;;;;5129098;27;20026;-73
2022/07/18 07:26:02;;;;;;;;;;;20.70;99.90;;;;;;5091304;28;20048;-74
2022/07/18 07:28:28;;;;;;;0.57;0.40;;;20.70;99.90;;;;;;5111515;28;19920;-74
2022/07/18 07:30:53;;;;;;;;;;;20.80;99.90;;;;;;5098872;28;20437;-74
2022/07/18 07:33:19;;;;;;;0.50;0.40;;;21.20;99.90;;;;;;5074970;28;19967;-74
2022/07/18 07:35:45;;;;;;;;;;;21.50;99.90;;;;;;5078493;28;20366;-74
2022/07/18 07:38:17;;;;;;;0.50;0.40;;;21.60;99.90;;;;;;5116823;27;19961;-74
2022/07/18 07:40:43;;;;;;;0.73;0.52;;;21.70;98.40;;;;;;5104750;27;20039;-73
2022/07/18 07:43:14;;;;;;;0.75;0.50;;;22.00;99.30;;;;;;5094859;28;20084;-74
2022/07/18 07:45:40;;;;;;;0.40;0.30;;;22.10;97.90;;;;;;5129271;27;20043;-74
2022/07/18 07:48:06;;;;;;;1.00;0.60;;;22.40;97.40;;;;;;5129035;27;20488;-74
2022/07/18 07:50:32;;;;;;;0.57;0.38;;;22.50;97.20;;;;;;5093762;27;20051;-74
2022/07/18 07:52:59;;;;;;;0.40;0.40;;;22.50;96.00;;;;;;5082631;28;20378;-73
2022/07/18 07:55:25;;;;;;;0.47;0.38;;;22.60;97.00;;;;;;5100632;27;20039;-73
2022/07/18 07:57:50;;;;;;;0.65;0.35;;;22.60;96.10;;;;;;5106146;28;20122;-73
2022/07/18 08:00:17;;;;;;;0.35;0.35;;;22.80;96.70;;;;;;5094642;27;20039;-73
2022/07/18 08:03:03;;;;;;;0.40;0.30;;;23.00;97.40;;;;;;5097431;27;20512;-77
2022/07/18 08:05:31;;;;;;;2.78;0.60;;;23.40;97.10;;;;;;5085070;28;20046;-74
2022/07/18 08:07:59;;;;;;;0.50;0.43;;;23.50;94.70;;;;;;5127621;27;20520;-74
2022/07/18 08:10:26;;;;;;;0.60;0.40;;;23.50;94.90;;;;;;5090127;28;20494;-74
2022/07/18 08:12:52;;;;;;;0.65;0.40;;;23.50;95.30;;;;;;5074522;28;20421;-74
2022/07/18 08:15:18;;;;;;;0.80;0.40;;;23.60;95.60;;;;;;5092893;28;20032;-74
2022/07/18 08:17:44;;;;;;;0.70;0.50;;;23.50;94.60;;;;;;5075305;28;20038;-75
2022/07/18 08:20:11;;;;;;;0.55;0.50;;;23.60;94.80;;;;;;5091967;28;20081;-75
2022/07/18 08:22:56;;;;;;;0.57;0.40;;;23.80;95.20;;;;;;5092007;28;20050;-74
2022/07/18 08:25:22;;;;;;;0.60;0.40;;;24.10;94.50;;;;;;5075029;28;20525;-74
2022/07/18 08:27:48;;;;;;;0.75;0.50;;;24.40;94.80;;;;;;5092179;28;20043;-75
2022/07/18 08:30:14;;;;;;;0.82;0.40;;;24.70;93.90;;;;;;5096251;27;20039;-74
2022/07/18 08:32:40;;;;;;;0.93;0.50;;;25.10;93.40;;;;;;5092654;28;20042;-74
2022/07/18 08:35:06;;;;;;;0.70;0.47;;;25.50;92.70;;;;;;5086535;28;20028;-74
2022/07/18 08:37:32;;;;;;;1.25;0.50;;;25.60;91.30;;;;;;5102818;27;20509;-74
2022/07/18 08:39:57;;;;;;;0.50;0.43;;;25.70;92.20;;;;;;5102771;28;20039;-74
2022/07/18 08:42:25;;;;;;;0.40;0.40;;;25.80;91.00;;;;;;5099076;28;20035;-74
2022/07/18 08:44:55;;;;;;;0.50;0.50;;;25.80;90.80;;;;;;5101152;27;20131;-74
2022/07/18 08:47:22;;;;;;;2.10;0.80;;;25.70;89.90;;;;;;5080248;28;20054;-75
2022/07/18 08:49:48;;;;;;;0.80;0.60;;;25.50;89.50;;;;;;5093357;28;20035;-73
2022/07/18 08:52:15;;;;;;;1.48;0.73;;;25.40;90.70;;;;;;5141193;27;20079;-74
2022/07/18 08:54:42;;;;;;;1.23;0.65;;;25.30;89.80;;;;;;5099625;27;20075;-75
2022/07/18 08:57:08;;;;;;;1.10;0.65;;;25.10;88.70;;;;;;5099624;27;20043;-75
2022/07/18 08:59:34;;;;;;;1.60;0.75;;;25.00;89.20;;;;;;5097156;28;20043;-72
2022/07/18 09:01:59;;;;;;;1.50;0.90;;;24.80;89.30;;;;;;5092947;28;20084;-73
2022/07/18 09:04:36;;;;;;;1.25;0.63;;;24.70;88.20;;;;;;5127259;27;20856;-73
2022/07/18 09:07:03;;;;;;;1.40;0.60;;;24.60;89.30;;;;;;5092860;28;20520;-73
2022/07/18 09:09:29;;;;;;;0.73;0.52;;;24.60;90.40;;;;;;5126240;27;20036;-73
2022/07/18 09:12:01;;;;;;;1.00;0.70;;;24.60;91.00;;;;;;5092614;28;20046;-73
2022/07/18 09:14:44;;;;;;;0.60;0.50;;;24.70;91.00;;;;;;5075921;28;20044;-73
2022/07/18 09:17:23;;;;;;;0.68;0.38;;;25.00;91.80;;;;;;5076251;28;20047;-73
2022/07/18 09:20:08;;;;;;;0.40;0.30;;;25.10;91.00;;;;;;5093103;28;20043;-73
2022/07/18 09:22:39;;;;;;;0.50;0.45;;;25.30;91.60;;;;;;5126896;27;20043;-73
2022/07/18 09:25:13;;;;;;;0.63;0.50;;;25.40;91.20;;;;;;5092619;28;20100;-73
2022/07/18 09:27:49;;;;;;;0.73;0.50;;;25.50;90.50;;;;;;5075660;28;20074;-73
2022/07/18 09:30:28;;;;;;;0.63;0.55;;;25.60;88.20;;;;;;5092392;28;20043;-73
2022/07/18 09:33:03;;;;;;;0.70;0.50;;;25.90;89.70;;;;;;5126691;27;20055;-73
2022/07/18 09:35:33;;;;;;;1.25;0.50;;;26.00;86.30;;;;;;5079693;28;20054;-73
2022/07/18 09:38:05;;;;;;;0.60;0.40;;;26.10;87.20;;;;;;5126661;27;20077;-73
2022/07/18 09:40:36;;;;;;;0.75;0.40;;;26.20;87.00;;;;;;5078814;28;20031;-73
2022/07/18 09:43:07;;;;;;;0.80;0.50;;;26.30;84.20;;;;;;5092521;28;20469;-73
2022/07/18 09:45:35;;;;;;;1.05;0.65;;;26.30;83.80;;;;;;5092251;28;20039;-73
2022/07/18 09:48:06;;;;;;;1.27;0.50;;;26.20;82.70;;;;;;5092562;28;20123;-73
2022/07/18 09:50:40;;;;;;;0.95;0.50;;;26.20;84.80;;;;;;5092764;28;20097;-73
2022/07/18 09:53:24;;;;;;;0.85;0.52;;;26.40;83.50;;;;;;5126259;28;20504;-73
2022/07/18 09:55:55;;;;;;;0.75;0.50;;;26.40;83.30;;;;;;5092316;28;20039;-73
2022/07/18 09:58:24;;;;;;;0.80;0.65;;;26.60;84.20;;;;;;5109373;28;20036;-73
2022/07/18 10:00:50;;;;;;;1.00;0.60;;;26.80;83.10;;;;;;5092292;28;20079;-73
2022/07/18 10:03:17;;;;;;;1.00;0.60;;;27.00;82.20;;;;;;5092479;28;20077;-73
2022/07/18 10:05:45;;;;;;;1.38;0.63;;;27.10;80.20;;;;;;5092271;28;20039;-73
2022/07/18 10:08:13;;;;;;;1.02;0.60;;;27.20;79.60;;;;;;5109255;28;20054;-73
2022/07/18 10:10:41;;;;;;;0.75;0.60;;;27.20;80.50;;;;;;5092537;28;20040;-73
2022/07/18 10:13:07;;;;;;;0.85;0.50;;;27.40;81.50;;;;;;5091872;28;20477;-73
2022/07/18 10:15:38;;;;;;;0.95;0.60;;;27.50;81.20;;;;;;5092290;28;20050;-73
2022/07/18 10:18:06;;;;;;;0.75;0.40;;;27.60;81.00;;;;;;5092103;28;20042;-73
2022/07/18 10:20:56;;;;;;;1.67;0.70;;;27.70;79.10;;;;;;5076996;28;20097;-74
2022/07/18 10:23:31;;;;;;;0.88;0.70;;;27.70;81.00;;;;;;5114376;28;20035;-74
2022/07/18 10:26:13;;;;;;;0.75;0.60;;;27.80;80.70;;;;;;5087617;28;20410;-74
2022/07/18 10:28:59;;;;;;;0.93;0.60;;;28.00;81.00;;;;;;5068799;28;20106;-74
2022/07/18 10:31:37;;;;;;;0.75;0.55;;;28.30;79.70;;;;;;5072320;28;20139;-73
2022/07/18 10:34:09;;;;;;;1.73;0.88;;;28.20;77.30;;;;;;5072656;28;20055;-73
2022/07/18 10:36:40;;;;;;;1.20;0.80;;;28.20;76.90;;;;;;5055531;28;20044;-73
2022/07/18 10:39:20;;;;;;;1.65;0.80;;;28.10;74.90;;;;;;5055270;28;20076;-73
2022/07/18 10:41:46;;;;;;;0.98;0.68;;;28.10;75.80;;;;;;5073602;28;20080;-73
2022/07/18 10:44:34;;;;;;;1.35;1.00;;;28.20;76.90;;;;;;5072178;28;20083;-74
2022/07/18 10:47:05;;;;;;;1.65;0.85;;;28.30;75.00;;;;;;5072075;28;20044;-74
2022/07/18 10:49:49;;;;;;;2.10;1.30;;;28.40;73.20;;;;;;5058864;28;20097;-73
2022/07/18 10:52:33;;;;;;;1.63;1.00;;;28.40;73.30;;;;;;5072233;28;20384;-73
2022/07/18 10:55:17;;;;;;;1.10;0.95;;;28.70;72.70;;;;;;5062211;28;20063;-73
2022/07/18 10:57:49;;;;;;;2.10;1.50;;;28.90;73.30;;;;;;5082681;28;20183;-73
2022/07/18 11:00:49;;;;;;;1.25;1.00;;;29.10;71.80;;;;;;5076765;28;20048;-73
2022/07/18 11:03:16;;;;;;;1.13;1.02;;;29.30;71.50;;;;;;5059097;28;20079;-73
2022/07/18 11:05:45;;;;;;;1.63;1.13;;;29.40;69.90;;;;;;5071771;28;20470;-72
2022/07/18 11:08:12;;;;;;;1.67;1.20;;;29.50;69.90;;;;;;5057904;28;20115;-72
2022/07/18 11:10:41;;;;;;;1.10;1.00;;;29.70;67.70;;;;;;5054876;28;20044;-71
2022/07/18 11:13:28;;;;;;;1.20;1.10;;;29.90;67.70;;;;;;5071270;28;20083;-71
2022/07/18 11:16:06;;;;;;;2.22;1.20;;;29.70;67.00;;;;;;5065251;28;20048;-71
2022/07/18 11:18:55;;;;;;;1.58;1.10;;;29.70;66.60;;;;;;5069363;28;20037;-73
2022/07/18 11:21:28;;;;;;;1.45;1.00;;;29.90;67.00;;;;;;5061620;28;20052;-73
2022/07/18 11:24:08;;;;;;;1.73;1.13;;;29.90;67.00;;;;;;5071374;28;20109;-73
2022/07/18 11:26:36;;;;;;;2.28;1.50;;;29.80;65.10;;;;;;5071219;28;20087;-73
2022/07/18 11:29:11;;;;;;;2.05;1.70;;;29.60;64.20;;;;;;5071063;28;20368;-74
2022/07/18 11:31:51;;;;;;;2.22;1.60;;;29.50;65.70;;;;;;5051729;28;20028;-73
2022/07/18 11:34:17;;;;;;;1.95;1.63;;;29.70;65.40;;;;;;5071426;28;20402;-74
2022/07/18 11:36:47;;;;;;;2.33;1.50;;;29.70;64.90;;;;;;5071239;28;20040;-73
2022/07/18 11:39:13;;;;;;;1.73;1.48;;;30.00;64.80;;;;;;5070949;28;20491;-73
2022/07/18 11:41:40;;;;;;;2.33;1.70;;;29.80;62.30;;;;;;5071333;28;20119;-73
2022/07/18 11:44:21;;;;;;;1.85;1.30;;;29.70;64.90;;;;;;5070893;28;20044;-74
2022/07/18 11:46:47;;;;;;;1.35;1.20;;;29.90;64.50;;;;;;5054203;28;20061;-73
2022/07/18 11:49:13;;;;;;;1.50;1.08;;;30.10;63.80;;;;;;5071081;28;20040;-73
2022/07/18 11:51:45;;;;;;;1.90;1.20;;;30.00;65.20;;;;;;5071108;28;20460;-73
2022/07/18 11:54:11;;;;;;;1.75;1.00;;;30.20;65.20;;;;;;5053539;28;20090;-73
2022/07/18 11:56:49;;;;;;;2.15;1.40;;;30.20;62.80;;;;;;5071043;28;20044;-74
2022/07/18 11:59:15;;;;;;;1.40;1.25;;;30.10;63.80;;;;;;5070528;28;20043;-74
2022/07/18 12:01:41;;;;;;;1.65;1.30;;;30.30;64.20;;;;;;5070137;28;20041;-74
2022/07/18 12:04:19;;;;;;;1.65;1.20;;;30.40;65.00;;;;;;5053632;28;20461;-74
2022/07/18 12:06:45;;;;;;;1.50;1.20;;;30.60;62.40;;;;;;5071778;28;20080;-74
2022/07/18 12:09:11;;;;;;;1.75;1.08;;;30.90;64.40;;;;;;5070461;28;20399;-74
2022/07/18 12:11:38;;;;;;;1.70;1.00;;;30.90;62.50;;;;;;5070382;28;20123;-74
2022/07/18 12:14:06;;;;;;;1.35;1.25;;;31.00;61.10;;;;;;5070597;28;20056;-73
2022/07/18 12:16:38;;;;;;;2.10;1.60;;;31.00;59.40;;;;;;5070636;28;20036;-73
2022/07/18 12:19:24;;;;;;;1.80;1.25;;;31.10;61.30;;;;;;5070142;28;20097;-73
2022/07/18 12:22:10;;;;;;;1.27;1.10;;;31.20;60.70;;;;;;5057085;28;20572;-74
2022/07/18 12:24:55;;;;;;;1.98;1.77;;;31.20;61.00;;;;;;5053087;28;20040;-74
2022/07/18 12:27:26;;;;;;;1.60;1.30;;;31.10;60.50;;;;;;5070142;28;20052;-74
2022/07/18 12:30:20;;;;;;;1.92;1.60;;;31.50;61.10;;;;;;5069941;28;20036;-74
2022/07/18 12:32:51;;;;;;;1.50;1.25;;;31.50;60.50;;;;;;5070331;28;20141;-74
2022/07/18 12:35:21;;;;;;;1.77;1.40;;;31.70;60.60;;;;;;5069040;28;20067;-74
2022/07/18 12:37:51;;;;;;;1.55;1.20;;;31.60;60.00;;;;;;5069651;28;20048;-74
2022/07/18 12:40:17;;;;;;;1.45;1.35;;;31.50;60.10;;;;;;5069770;28;20032;-74
2022/07/18 12:42:43;;;;;;;1.55;1.40;;;31.30;60.80;;;;;;5070134;28;20105;-74
2022/07/18 12:45:10;;;;;;;1.42;1.30;;;31.50;60.00;;;;;;5051897;28;20458;-74
2022/07/18 12:47:36;;;;;;;1.95;1.60;;;31.80;61.70;;;;;;5069818;28;20059;-74
2022/07/18 12:50:04;;;;;;;1.90;1.60;;;31.40;59.10;;;;;;5069835;28;20037;-74
2022/07/18 12:52:29;;;;;;;2.00;1.48;;;31.20;60.20;;;;;;5069704;28;20422;-74
2022/07/18 12:54:55;;;;;;;1.90;1.70;;;30.90;61.00;;;;;;5069587;28;20044;-74
2022/07/18 12:57:21;;;;;;;1.63;1.30;;;30.80;60.60;;;;;;5053129;28;20045;-74
2022/07/18 12:59:47;;;;;;;1.70;1.40;;;30.90;62.90;;;;;;5069378;28;20052;-74
2022/07/18 13:02:14;;;;;;;3.03;1.90;;;30.80;61.50;;;;;;5062691;28;20052;-74